sensor_id;sensor_type;location;lat;lon;timestamp;pressure;altitude;pressure_sealevel;temperature;humidity
75065;BME280;63646;49.110;9.140;2022-11-15T00:00:20;99148.91;;;20.64;57.58
75065;BME280;63646;49.110;9.140;2022-11-15T00:02:45;99146.13;;;20.66;57.77
75065;BME280;63646;49.110;9.140;2022-11-15T00:05:11;99142.63;;;20.65;57.47
75065;BME280;63646;49.110;9.140;2022-11-15T00:07:36;99133.81;;;20.65;57.45
75065;BME280;63646;49.110;9.140;2022-11-15T00:10:02;99146.25;;;20.64;57.71
75065;BME280;63646;49.110;9.140;2022-11-15T00:12:28;99142.78;;;20.64;57.72
75065;BME280;63646;49.110;9.140;2022-11-15T00:14:53;99143.75;;;20.63;57.39
75065;BME280;63646;49.110;9.140;2022-11-15T00:17:19;99145.44;;;20.64;57.44
75065;BME280;63646;49.110;9.140;2022-11-15T00:19:44;99145.44;;;20.64;57.72
75065;BME280;63646;49.110;9.140;2022-11-15T00:22:10;99144.44;;;20.65;57.43
75065;BME280;63646;49.110;9.140;2022-11-15T00:24:35;99145.44;;;20.64;57.15
75065;BME280;63646;49.110;9.140;2022-11-15T00:27:00;99146.41;;;20.63;57.49
75065;BME280;63646;49.110;9.140;2022-11-15T00:29:26;99144.59;;;20.63;57.27
75065;BME280;63646;49.110;9.140;2022-11-15T00:31:52;99143.75;;;20.63;57.50
75065;BME280;63646;49.110;9.140;2022-11-15T00:34:17;99141.94;;;20.63;57.50
75065;BME280;63646;49.110;9.140;2022-11-15T00:36:43;99138.44;;;20.63;57.47
75065;BME280;63646;49.110;9.140;2022-11-15T00:39:08;99138.44;;;20.63;57.42
75065;BME280;63646;49.110;9.140;2022-11-15T00:41:34;99132.31;;;20.62;57.21
75065;BME280;63646;49.110;9.140;2022-11-15T00:43:59;99136.75;;;20.62;57.54
75065;BME280;63646;49.110;9.140;2022-11-15T00:46:24;99131.44;;;20.62;57.18
75065;BME280;63646;49.110;9.140;2022-11-15T00:48:50;99127.97;;;20.61;57.11
75065;BME280;63646;49.110;9.140;2022-11-15T00:51:15;99129.50;;;20.64;57.39
75065;BME280;63646;49.110;9.140;2022-11-15T00:53:41;99122.53;;;20.63;57.44
75065;BME280;63646;49.110;9.140;2022-11-15T00:56:06;99122.53;;;20.63;57.44
75065;BME280;63646;49.110;9.140;2022-11-15T00:58:32;99123.47;;;20.62;57.23
75065;BME280;63646;49.110;9.140;2022-11-15T01:01:05;99116.38;;;20.62;57.18
75065;BME280;63646;49.110;9.140;2022-11-15T01:03:33;99122.53;;;20.63;57.48
75065;BME280;63646;49.110;9.140;2022-11-15T01:05:59;99112.75;;;20.63;57.35
75065;BME280;63646;49.110;9.140;2022-11-15T01:08:25;99109.25;;;20.63;57.38
75065;BME280;63646;49.110;9.140;2022-11-15T01:10:50;99110.22;;;20.62;56.80
75065;BME280;63646;49.110;9.140;2022-11-15T01:13:15;99106.59;;;20.63;57.00
75065;BME280;63646;49.110;9.140;2022-11-15T01:15:41;99099.59;;;20.62;57.57
75065;BME280;63646;49.110;9.140;2022-11-15T01:18:07;99097.09;;;20.60;57.30
75065;BME280;63646;49.110;9.140;2022-11-15T01:20:32;99093.31;;;20.63;57.14
75065;BME280;63646;49.110;9.140;2022-11-15T01:22:57;99098.09;;;20.59;57.09
75065;BME280;63646;49.110;9.140;2022-11-15T01:25:23;99091.78;;;20.60;57.30
75065;BME280;63646;49.110;9.140;2022-11-15T01:27:49;99084.66;;;20.61;57.18
75065;BME280;63646;49.110;9.140;2022-11-15T01:30:15;99091.78;;;20.60;57.25
75065;BME280;63646;49.110;9.140;2022-11-15T01:32:40;99090.97;;;20.60;56.98
75065;BME280;63646;49.110;9.140;2022-11-15T01:35:06;99096.09;;;20.61;57.20
75065;BME280;63646;49.110;9.140;2022-11-15T01:37:31;99089.13;;;20.60;57.49
75065;BME280;63646;49.110;9.140;2022-11-15T01:39:56;99090.97;;;20.60;57.17
75065;BME280;63646;49.110;9.140;2022-11-15T01:42:22;99091.78;;;20.60;57.39
75065;BME280;63646;49.110;9.140;2022-11-15T01:44:49;99090.97;;;20.60;57.30
75065;BME280;63646;49.110;9.140;2022-11-15T01:47:25;99088.31;;;20.60;56.94
75065;BME280;63646;49.110;9.140;2022-11-15T01:52:28;99084.00;;;20.59;57.06
75065;BME280;63646;49.110;9.140;2022-11-15T01:57:30;99075.03;;;20.60;57.21
75065;BME280;63646;49.110;9.140;2022-11-15T01:59:56;99073.38;;;20.59;57.41
75065;BME280;63646;49.110;9.140;2022-11-15T02:02:22;99070.72;;;20.59;57.32
75065;BME280;63646;49.110;9.140;2022-11-15T02:04:47;99073.66;;;20.56;57.43
75065;BME280;63646;49.110;9.140;2022-11-15T02:07:16;99077.81;;;20.58;57.23
75065;BME280;63646;49.110;9.140;2022-11-15T02:09:43;99070.84;;;20.57;57.19
75065;BME280;63646;49.110;9.140;2022-11-15T02:12:09;99066.38;;;20.58;57.51
75065;BME280;63646;49.110;9.140;2022-11-15T02:14:39;99067.19;;;20.58;57.25
75065;BME280;63646;49.110;9.140;2022-11-15T02:34:04;99046.94;;;20.57;57.02
75065;BME280;63646;49.110;9.140;2022-11-15T02:36:43;99052.41;;;20.56;57.18
75065;BME280;63646;49.110;9.140;2022-11-15T02:41:51;99039.28;;;20.54;57.36
75065;BME280;63646;49.110;9.140;2022-11-15T02:44:30;99038.44;;;20.54;57.09
75065;BME280;63646;49.110;9.140;2022-11-15T02:47:03;99040.16;;;20.55;57.25
75065;BME280;63646;49.110;9.140;2022-11-15T02:49:50;99028.81;;;20.53;57.19
75065;BME280;63646;49.110;9.140;2022-11-15T02:52:17;99035.78;;;20.54;57.27
75065;BME280;63646;49.110;9.140;2022-11-15T02:55:01;99017.38;;;20.52;57.04
75065;BME280;63646;49.110;9.140;2022-11-15T03:00:24;99020.03;;;20.52;57.64
75065;BME280;63646;49.110;9.140;2022-11-15T03:02:57;99022.53;;;20.54;57.22
75065;BME280;63646;49.110;9.140;2022-11-15T03:05:57;99018.38;;;20.51;57.17
75065;BME280;63646;49.110;9.140;2022-11-15T03:08:57;99015.56;;;20.53;57.31
75065;BME280;63646;49.110;9.140;2022-11-15T03:11:29;99020.03;;;20.52;57.48
75065;BME280;63646;49.110;9.140;2022-11-15T03:19:37;99009.25;;;20.54;57.40
75065;BME280;63646;49.110;9.140;2022-11-15T03:22:08;99004.09;;;20.52;57.41
75065;BME280;63646;49.110;9.140;2022-11-15T03:24:37;99007.59;;;20.53;57.08
75065;BME280;63646;49.110;9.140;2022-11-15T03:27:05;99000.63;;;20.52;57.38
75065;BME280;63646;49.110;9.140;2022-11-15T03:29:38;98999.63;;;20.53;57.59
75065;BME280;63646;49.110;9.140;2022-11-15T03:32:13;98994.47;;;20.51;57.12
75065;BME280;63646;49.110;9.140;2022-11-15T03:37:12;98994.31;;;20.53;57.23
75065;BME280;63646;49.110;9.140;2022-11-15T03:39:39;98990.13;;;20.50;57.38
75065;BME280;63646;49.110;9.140;2022-11-15T03:44:51;98990.97;;;20.50;57.24
75065;BME280;63646;49.110;9.140;2022-11-15T03:49:55;98992.09;;;20.48;57.11
75065;BME280;63646;49.110;9.140;2022-11-15T03:52:23;98986.78;;;20.48;57.35
75065;BME280;63646;49.110;9.140;2022-11-15T03:54:50;98987.63;;;20.48;57.47
75065;BME280;63646;49.110;9.140;2022-11-15T03:57:17;98986.78;;;20.48;57.23
75065;BME280;63646;49.110;9.140;2022-11-15T03:59:43;98985.09;;;20.47;57.37
75065;BME280;63646;49.110;9.140;2022-11-15T04:02:08;98978.00;;;20.47;57.35
75065;BME280;63646;49.110;9.140;2022-11-15T04:04:33;98980.63;;;20.47;56.97
75065;BME280;63646;49.110;9.140;2022-11-15T04:06:59;98987.63;;;20.48;57.79
75065;BME280;63646;49.110;9.140;2022-11-15T04:09:24;98993.06;;;20.47;57.35
75065;BME280;63646;49.110;9.140;2022-11-15T04:11:49;98989.56;;;20.46;57.02
75065;BME280;63646;49.110;9.140;2022-11-15T04:14:15;98988.72;;;20.46;57.36
75065;BME280;63646;49.110;9.140;2022-11-15T04:16:40;98984.25;;;20.46;57.40
75065;BME280;63646;49.110;9.140;2022-11-15T04:19:05;98980.63;;;20.47;57.08
75065;BME280;63646;49.110;9.140;2022-11-15T04:21:49;98982.44;;;20.47;57.36
75065;BME280;63646;49.110;9.140;2022-11-15T04:24:33;98979.78;;;20.47;57.41
75065;BME280;63646;49.110;9.140;2022-11-15T04:26:58;98970.97;;;20.46;57.19
75065;BME280;63646;49.110;9.140;2022-11-15T04:29:24;98972.69;;;20.47;57.37
75065;BME280;63646;49.110;9.140;2022-11-15T04:32:03;98977.81;;;20.49;57.29
75065;BME280;63646;49.110;9.140;2022-11-15T04:34:29;98977.00;;;20.48;57.09
75065;BME280;63646;49.110;9.140;2022-11-15T04:36:54;98970.84;;;20.48;57.47
75065;BME280;63646;49.110;9.140;2022-11-15T04:39:39;98962.06;;;20.47;57.06
75065;BME280;63646;49.110;9.140;2022-11-15T04:42:04;98974.47;;;20.47;57.06
75065;BME280;63646;49.110;9.140;2022-11-15T04:44:29;98964.72;;;20.47;57.39
75065;BME280;63646;49.110;9.140;2022-11-15T04:46:55;98964.03;;;20.45;57.14
75065;BME280;63646;49.110;9.140;2022-11-15T04:49:20;98959.53;;;20.46;57.00
75065;BME280;63646;49.110;9.140;2022-11-15T04:51:45;98958.72;;;20.45;57.14
75065;BME280;63646;49.110;9.140;2022-11-15T04:54:11;98949.91;;;20.45;57.23
75065;BME280;63646;49.110;9.140;2022-11-15T04:56:36;98948.25;;;20.44;57.29
75065;BME280;63646;49.110;9.140;2022-11-15T04:59:01;98939.44;;;20.43;57.31
75065;BME280;63646;49.110;9.140;2022-11-15T05:01:27;98944.75;;;20.43;56.74
75065;BME280;63646;49.110;9.140;2022-11-15T05:03:52;98943.09;;;20.42;57.37
75065;BME280;63646;49.110;9.140;2022-11-15T05:06:36;98948.38;;;20.42;57.16
75065;BME280;63646;49.110;9.140;2022-11-15T05:09:03;98948.38;;;20.42;56.97
75065;BME280;63646;49.110;9.140;2022-11-15T05:11:29;98948.25;;;20.44;56.92
75065;BME280;63646;49.110;9.140;2022-11-15T05:13:54;98934.28;;;20.42;57.26
75065;BME280;63646;49.110;9.140;2022-11-15T05:16:19;98942.94;;;20.44;57.01
75065;BME280;63646;49.110;9.140;2022-11-15T05:18:45;98929.16;;;20.40;57.43
75065;BME280;63646;49.110;9.140;2022-11-15T05:21:13;98932.47;;;20.42;57.07
75065;BME280;63646;49.110;9.140;2022-11-15T05:23:39;98939.59;;;20.42;57.06
75065;BME280;63646;49.110;9.140;2022-11-15T05:26:05;98943.91;;;20.43;57.28
75065;BME280;63646;49.110;9.140;2022-11-15T05:28:31;98937.78;;;20.42;57.22
75065;BME280;63646;49.110;9.140;2022-11-15T05:31:08;98933.47;;;20.41;57.18
75065;BME280;63646;49.110;9.140;2022-11-15T05:33:35;98928.00;;;20.43;57.31
75065;BME280;63646;49.110;9.140;2022-11-15T05:36:09;98926.16;;;20.43;57.22
75065;BME280;63646;49.110;9.140;2022-11-15T05:38:37;98925.34;;;20.43;57.38
75065;BME280;63646;49.110;9.140;2022-11-15T05:41:03;98932.34;;;20.44;57.42
75065;BME280;63646;49.110;9.140;2022-11-15T05:43:33;98928.97;;;20.42;57.11
75065;BME280;63646;49.110;9.140;2022-11-15T05:46:02;98929.81;;;20.42;57.29
75065;BME280;63646;49.110;9.140;2022-11-15T05:48:28;98915.56;;;20.43;57.08
75065;BME280;63646;49.110;9.140;2022-11-15T05:50:54;98919.19;;;20.42;57.08
75065;BME280;63646;49.110;9.140;2022-11-15T05:53:21;98913.06;;;20.42;57.03
75065;BME280;63646;49.110;9.140;2022-11-15T05:55:48;98925.50;;;20.41;57.09
75065;BME280;63646;49.110;9.140;2022-11-15T05:58:14;98922.00;;;20.41;57.18
75065;BME280;63646;49.110;9.140;2022-11-15T06:00:40;98920.19;;;20.41;57.60
75065;BME280;63646;49.110;9.140;2022-11-15T06:03:05;98917.38;;;20.43;57.25
75065;BME280;63646;49.110;9.140;2022-11-15T06:05:30;98916.53;;;20.42;57.53
75065;BME280;63646;49.110;9.140;2022-11-15T06:08:22;98929.50;;;20.45;57.90
75065;BME280;63646;49.110;9.140;2022-11-15T06:10:47;98933.16;;;20.44;57.68
75065;BME280;63646;49.110;9.140;2022-11-15T06:13:13;98911.09;;;20.44;57.95
75065;BME280;63646;49.110;9.140;2022-11-15T06:15:38;98923.22;;;20.46;58.15
75065;BME280;63646;49.110;9.140;2022-11-15T06:18:04;98929.22;;;20.48;57.67
75065;BME280;63646;49.110;9.140;2022-11-15T06:20:29;98915.13;;;20.48;57.89
75065;BME280;63646;49.110;9.140;2022-11-15T06:22:59;98910.50;;;20.50;57.87
75065;BME280;63646;49.110;9.140;2022-11-15T06:25:25;98918.47;;;20.50;58.14
75065;BME280;63646;49.110;9.140;2022-11-15T06:27:53;98928.13;;;20.51;57.99
75065;BME280;63646;49.110;9.140;2022-11-15T06:30:20;98922.81;;;20.51;57.94
75065;BME280;63646;49.110;9.140;2022-11-15T06:32:45;98924.63;;;20.50;58.12
75065;BME280;63646;49.110;9.140;2022-11-15T06:35:10;98916.78;;;20.49;57.95
75065;BME280;63646;49.110;9.140;2022-11-15T06:37:36;98929.09;;;20.50;58.24
75065;BME280;63646;49.110;9.140;2022-11-15T06:40:02;98928.25;;;20.49;57.91
75065;BME280;63646;49.110;9.140;2022-11-15T06:42:27;98925.59;;;20.49;58.10
75065;BME280;63646;49.110;9.140;2022-11-15T06:44:53;98932.44;;;20.52;57.78
75065;BME280;63646;49.110;9.140;2022-11-15T06:47:18;98923.66;;;20.52;58.02
75065;BME280;63646;49.110;9.140;2022-11-15T06:49:43;98929.63;;;20.54;58.07
75065;BME280;63646;49.110;9.140;2022-11-15T06:52:09;98931.31;;;20.55;58.06
75065;BME280;63646;49.110;9.140;2022-11-15T06:54:34;98930.31;;;20.56;58.18
75065;BME280;63646;49.110;9.140;2022-11-15T06:56:59;98931.16;;;20.56;58.09
75065;BME280;63646;49.110;9.140;2022-11-15T06:59:25;98929.16;;;20.58;58.25
75065;BME280;63646;49.110;9.140;2022-11-15T07:01:50;98907.09;;;20.58;57.72
75065;BME280;63646;49.110;9.140;2022-11-15T07:04:15;98904.31;;;20.59;58.16
75065;BME280;63646;49.110;9.140;2022-11-15T07:06:41;98937.13;;;20.58;58.40
75065;BME280;63646;49.110;9.140;2022-11-15T07:09:06;98935.34;;;20.59;58.27
75065;BME280;63646;49.110;9.140;2022-11-15T07:11:33;98938.81;;;20.59;58.19
75065;BME280;63646;49.110;9.140;2022-11-15T07:13:59;98930.84;;;20.59;58.15
75065;BME280;63646;49.110;9.140;2022-11-15T07:16:24;98928.34;;;20.58;58.24
75065;BME280;63646;49.110;9.140;2022-11-15T07:18:49;98934.19;;;20.61;58.13
75065;BME280;63646;49.110;9.140;2022-11-15T07:21:15;98931.69;;;20.60;57.94
75065;BME280;63646;49.110;9.140;2022-11-15T07:23:40;98937.81;;;20.60;57.60
75065;BME280;63646;49.110;9.140;2022-11-15T07:26:06;98930.69;;;20.61;58.05
75065;BME280;63646;49.110;9.140;2022-11-15T07:28:32;98942.16;;;20.61;58.15
75065;BME280;63646;49.110;9.140;2022-11-15T07:30:58;98937.00;;;20.60;58.39
75065;BME280;63646;49.110;9.140;2022-11-15T07:33:23;98935.16;;;20.60;58.25
75065;BME280;63646;49.110;9.140;2022-11-15T07:35:49;98926.22;;;20.61;58.21
75065;BME280;63646;49.110;9.140;2022-11-15T07:38:14;98937.00;;;20.60;58.13
75065;BME280;63646;49.110;9.140;2022-11-15T07:40:40;98938.66;;;20.61;58.50
75065;BME280;63646;49.110;9.140;2022-11-15T07:43:07;98937.66;;;20.62;58.18
75065;BME280;63646;49.110;9.140;2022-11-15T07:45:33;98942.16;;;20.61;58.21
75065;BME280;63646;49.110;9.140;2022-11-15T07:48:00;98945.78;;;20.60;58.14
75065;BME280;63646;49.110;9.140;2022-11-15T07:50:26;98935.34;;;20.59;58.15
75065;BME280;63646;49.110;9.140;2022-11-15T07:52:57;98938.66;;;20.61;57.30
75065;BME280;63646;49.110;9.140;2022-11-15T07:55:24;98945.63;;;20.62;57.96
75065;BME280;63646;49.110;9.140;2022-11-15T07:57:50;98950.94;;;20.62;57.75
75065;BME280;63646;49.110;9.140;2022-11-15T08:00:16;98945.63;;;20.62;57.65
75065;BME280;63646;49.110;9.140;2022-11-15T08:02:41;98942.00;;;20.63;57.94
75065;BME280;63646;49.110;9.140;2022-11-15T08:05:07;98940.31;;;20.62;58.04
75065;BME280;63646;49.110;9.140;2022-11-15T08:07:32;98944.78;;;20.61;57.76
75065;BME280;63646;49.110;9.140;2022-11-15T08:09:58;98933.22;;;20.62;57.86
75065;BME280;63646;49.110;9.140;2022-11-15T08:12:26;98940.47;;;20.60;57.52
75065;BME280;63646;49.110;9.140;2022-11-15T08:14:52;98936.00;;;20.61;57.56
75065;BME280;63646;49.110;9.140;2022-11-15T08:17:17;98930.69;;;20.61;57.97
75065;BME280;63646;49.110;9.140;2022-11-15T08:19:43;98933.34;;;20.61;57.69
75065;BME280;63646;49.110;9.140;2022-11-15T08:22:08;98932.53;;;20.60;57.66
75065;BME280;63646;49.110;9.140;2022-11-15T08:24:33;98933.34;;;20.61;57.82
75065;BME280;63646;49.110;9.140;2022-11-15T08:26:59;98928.88;;;20.61;57.68
75065;BME280;63646;49.110;9.140;2022-11-15T08:29:25;98930.69;;;20.61;57.91
75065;BME280;63646;49.110;9.140;2022-11-15T08:31:50;98920.06;;;20.61;57.85
75065;BME280;63646;49.110;9.140;2022-11-15T08:34:16;98923.56;;;20.61;57.71
75065;BME280;63646;49.110;9.140;2022-11-15T08:36:41;98923.56;;;20.61;58.09
75065;BME280;63646;49.110;9.140;2022-11-15T08:39:10;98926.09;;;20.63;58.30
75065;BME280;63646;49.110;9.140;2022-11-15T08:41:36;98916.28;;;20.63;58.28
75065;BME280;63646;49.110;9.140;2022-11-15T08:44:02;98911.81;;;20.64;57.75
75065;BME280;63646;49.110;9.140;2022-11-15T08:46:28;98908.16;;;20.65;57.87
75065;BME280;63646;49.110;9.140;2022-11-15T08:48:55;98906.34;;;20.65;58.06
75065;BME280;63646;49.110;9.140;2022-11-15T08:51:20;98906.22;;;20.67;57.90
75065;BME280;63646;49.110;9.140;2022-11-15T08:53:45;98907.72;;;20.69;58.14
75065;BME280;63646;49.110;9.140;2022-11-15T08:56:12;98903.25;;;20.70;57.93
75065;BME280;63646;49.110;9.140;2022-11-15T08:58:38;98893.47;;;20.70;57.86
75065;BME280;63646;49.110;9.140;2022-11-15T09:01:04;98903.91;;;20.72;58.04
75065;BME280;63646;49.110;9.140;2022-11-15T09:03:30;98898.59;;;20.72;58.40
75065;BME280;63646;49.110;9.140;2022-11-15T09:05:57;98896.78;;;20.72;58.20
75065;BME280;63646;49.110;9.140;2022-11-15T09:08:23;98890.50;;;20.73;57.67
75065;BME280;63646;49.110;9.140;2022-11-15T09:10:48;98886.16;;;20.72;57.81
75065;BME280;63646;49.110;9.140;2022-11-15T09:13:14;98887.84;;;20.73;57.85
75065;BME280;63646;49.110;9.140;2022-11-15T09:15:39;98882.69;;;20.72;58.01
75065;BME280;63646;49.110;9.140;2022-11-15T09:18:05;98886.03;;;20.74;57.73
75065;BME280;63646;49.110;9.140;2022-11-15T09:20:30;98878.06;;;20.74;57.82
75065;BME280;63646;49.110;9.140;2022-11-15T09:23:02;98873.75;;;20.73;57.76
75065;BME280;63646;49.110;9.140;2022-11-15T09:25:28;98880.84;;;20.72;56.87
75065;BME280;63646;49.110;9.140;2022-11-15T09:27:54;98882.00;;;20.70;56.80
75065;BME280;63646;49.110;9.140;2022-11-15T09:30:20;98882.16;;;20.68;57.08
75065;BME280;63646;49.110;9.140;2022-11-15T09:32:46;98880.50;;;20.67;55.99
75065;BME280;63646;49.110;9.140;2022-11-15T09:35:11;98879.34;;;20.70;55.50
75065;BME280;63646;49.110;9.140;2022-11-15T09:37:36;98878.66;;;20.68;55.78
75065;BME280;63646;49.110;9.140;2022-11-15T09:40:03;98867.91;;;20.69;56.27
75065;BME280;63646;49.110;9.140;2022-11-15T09:42:50;98879.19;;;20.71;56.24
75065;BME280;63646;49.110;9.140;2022-11-15T09:45:24;98874.06;;;20.70;56.20
75065;BME280;63646;49.110;9.140;2022-11-15T09:50:43;98870.41;;;20.71;56.13
75065;BME280;63646;49.110;9.140;2022-11-15T09:53:14;98867.06;;;20.69;56.67
75065;BME280;63646;49.110;9.140;2022-11-15T09:55:58;98867.91;;;20.69;56.21
75065;BME280;63646;49.110;9.140;2022-11-15T09:58:38;98866.09;;;20.70;56.15
75065;BME280;63646;49.110;9.140;2022-11-15T10:01:16;98858.41;;;20.67;56.64
75065;BME280;63646;49.110;9.140;2022-11-15T10:03:44;98867.91;;;20.69;56.50
75065;BME280;63646;49.110;9.140;2022-11-15T10:06:21;98862.75;;;20.68;56.34
75065;BME280;63646;49.110;9.140;2022-11-15T10:11:30;98854.09;;;20.66;55.96
75065;BME280;63646;49.110;9.140;2022-11-15T10:14:10;98852.13;;;20.68;56.11
75065;BME280;63646;49.110;9.140;2022-11-15T10:24:39;98836.06;;;20.69;56.75
75065;BME280;63646;49.110;9.140;2022-11-15T10:27:17;98842.19;;;20.70;56.53
75065;BME280;63646;49.110;9.140;2022-11-15T10:29:48;98835.19;;;20.69;56.34
75065;BME280;63646;49.110;9.140;2022-11-15T10:32:17;98826.41;;;20.68;56.17
75065;BME280;63646;49.110;9.140;2022-11-15T10:34:43;98831.56;;;20.70;56.77
75065;BME280;63646;49.110;9.140;2022-11-15T10:37:09;98823.59;;;20.70;56.51
75065;BME280;63646;49.110;9.140;2022-11-15T10:39:35;98821.78;;;20.70;56.47
75065;BME280;63646;49.110;9.140;2022-11-15T10:42:22;98818.31;;;20.70;56.54
75065;BME280;63646;49.110;9.140;2022-11-15T10:44:50;98806.84;;;20.69;56.61
75065;BME280;63646;49.110;9.140;2022-11-15T10:49:59;98811.16;;;20.70;56.73
75065;BME280;63646;49.110;9.140;2022-11-15T10:52:24;98801.69;;;20.68;56.59
75065;BME280;63646;49.110;9.140;2022-11-15T10:54:55;98797.19;;;20.68;56.57
75065;BME280;63646;49.110;9.140;2022-11-15T10:57:27;98798.03;;;20.69;56.53
75065;BME280;63646;49.110;9.140;2022-11-15T11:05:40;98789.63;;;20.73;58.09
75065;BME280;63646;49.110;9.140;2022-11-15T11:10:58;98786.78;;;20.75;58.14
75065;BME280;63646;49.110;9.140;2022-11-15T11:13:32;98782.69;;;20.81;58.70
75065;BME280;63646;49.110;9.140;2022-11-15T11:16:09;98785.19;;;20.82;60.17
75065;BME280;63646;49.110;9.140;2022-11-15T11:24:18;98785.88;;;20.84;60.47
75065;BME280;63646;49.110;9.140;2022-11-15T11:27:21;98784.88;;;20.85;61.88
75065;BME280;63646;49.110;9.140;2022-11-15T11:30:00;98778.75;;;20.85;61.59
75065;BME280;63646;49.110;9.140;2022-11-15T11:37:33;98769.94;;;20.84;61.01
75065;BME280;63646;49.110;9.140;2022-11-15T11:43:25;98763.63;;;20.85;58.96
75065;BME280;63646;49.110;9.140;2022-11-15T11:48:44;98750.88;;;20.89;59.55
75065;BME280;63646;49.110;9.140;2022-11-15T11:51:21;98746.09;;;20.92;59.47
75065;BME280;63646;49.110;9.140;2022-11-15T11:53:52;98738.25;;;20.91;59.55
75065;BME280;63646;49.110;9.140;2022-11-15T11:58:50;98731.16;;;20.91;59.52
75065;BME280;63646;49.110;9.140;2022-11-15T12:01:24;98725.66;;;20.93;59.12
75065;BME280;63646;49.110;9.140;2022-11-15T12:04:01;98726.50;;;20.93;58.90
75065;BME280;63646;49.110;9.140;2022-11-15T12:12:25;98706.25;;;20.92;58.99
75065;BME280;63646;49.110;9.140;2022-11-15T12:15:03;98703.59;;;20.92;58.66
75065;BME280;63646;49.110;9.140;2022-11-15T12:17:30;98701.94;;;20.91;58.79
75065;BME280;63646;49.110;9.140;2022-11-15T12:20:13;98698.44;;;20.91;59.01
75065;BME280;63646;49.110;9.140;2022-11-15T12:30:17;98690.63;;;20.89;58.58
75065;BME280;63646;49.110;9.140;2022-11-15T12:32:53;98694.13;;;20.90;58.97
75065;BME280;63646;49.110;9.140;2022-11-15T12:37:49;98683.28;;;20.83;58.35
75065;BME280;63646;49.110;9.140;2022-11-15T12:40:22;98686.63;;;20.85;57.40
75065;BME280;63646;49.110;9.140;2022-11-15T12:45:41;98680.63;;;20.83;57.71
75065;BME280;63646;49.110;9.140;2022-11-15T13:06:54;98656.09;;;20.81;58.13
75065;BME280;63646;49.110;9.140;2022-11-15T13:12:02;98655.91;;;20.83;58.14
75065;BME280;63646;49.110;9.140;2022-11-15T13:17:34;98634.66;;;20.83;57.97
75065;BME280;63646;49.110;9.140;2022-11-15T13:20:07;98629.53;;;20.81;57.72
75065;BME280;63646;49.110;9.140;2022-11-15T13:28:02;98615.56;;;20.79;57.64
75065;BME280;63646;49.110;9.140;2022-11-15T13:30:30;98616.41;;;20.80;57.92
75065;BME280;63646;49.110;9.140;2022-11-15T13:32:59;98616.41;;;20.80;57.93
75065;BME280;63646;49.110;9.140;2022-11-15T13:35:28;98614.56;;;20.80;58.16
75065;BME280;63646;49.110;9.140;2022-11-15T13:37:55;98615.25;;;20.82;57.83
75065;BME280;63646;49.110;9.140;2022-11-15T13:40:25;98603.81;;;20.82;58.21
75065;BME280;63646;49.110;9.140;2022-11-15T13:42:53;98600.16;;;20.83;58.08
75065;BME280;63646;49.110;9.140;2022-11-15T13:45:19;98600.00;;;20.84;58.00
75065;BME280;63646;49.110;9.140;2022-11-15T13:47:47;98595.53;;;20.85;57.88
75065;BME280;63646;49.110;9.140;2022-11-15T13:50:15;98593.84;;;20.84;58.07
75065;BME280;63646;49.110;9.140;2022-11-15T13:52:43;98590.22;;;20.85;58.00
75065;BME280;63646;49.110;9.140;2022-11-15T14:00:40;98577.91;;;20.84;58.03
75065;BME280;63646;49.110;9.140;2022-11-15T14:05:40;98562.16;;;20.82;58.24
75065;BME280;63646;49.110;9.140;2022-11-15T14:08:32;98566.63;;;20.82;58.12
75065;BME280;63646;49.110;9.140;2022-11-15T14:11:15;98560.50;;;20.81;58.18
75065;BME280;63646;49.110;9.140;2022-11-15T14:13:42;98562.31;;;20.81;58.39
75065;BME280;63646;49.110;9.140;2022-11-15T14:16:19;98552.53;;;20.81;58.38
75065;BME280;63646;49.110;9.140;2022-11-15T14:18:50;98553.50;;;20.80;58.12
75065;BME280;63646;49.110;9.140;2022-11-15T14:21:18;98552.53;;;20.81;58.15
75065;BME280;63646;49.110;9.140;2022-11-15T14:23:44;98553.50;;;20.80;58.30
75065;BME280;63646;49.110;9.140;2022-11-15T14:26:30;98543.06;;;20.79;58.14
75065;BME280;63646;49.110;9.140;2022-11-15T14:28:56;98537.56;;;20.80;58.33
75065;BME280;63646;49.110;9.140;2022-11-15T14:31:22;98528.94;;;20.78;58.58
75065;BME280;63646;49.110;9.140;2022-11-15T14:33:47;98526.31;;;20.78;58.49
75065;BME280;63646;49.110;9.140;2022-11-15T14:36:20;98518.97;;;20.80;58.79
75065;BME280;63646;49.110;9.140;2022-11-15T14:38:47;98513.69;;;20.80;58.50
75065;BME280;63646;49.110;9.140;2022-11-15T14:41:24;98512.84;;;20.80;58.53
75065;BME280;63646;49.110;9.140;2022-11-15T14:43:50;98515.34;;;20.81;58.36
75065;BME280;63646;49.110;9.140;2022-11-15T14:46:16;98513.84;;;20.79;58.74
75065;BME280;63646;49.110;9.140;2022-11-15T14:48:41;98507.53;;;20.80;58.48
75065;BME280;63646;49.110;9.140;2022-11-15T14:51:16;98517.19;;;20.81;58.64
75065;BME280;63646;49.110;9.140;2022-11-15T14:53:42;98509.22;;;20.81;58.69
75065;BME280;63646;49.110;9.140;2022-11-15T14:56:09;98508.38;;;20.80;58.48
75065;BME280;63646;49.110;9.140;2022-11-15T14:58:35;98504.75;;;20.81;58.34
75065;BME280;63646;49.110;9.140;2022-11-15T15:01:24;98497.91;;;20.79;58.48
75065;BME280;63646;49.110;9.140;2022-11-15T15:03:48;98496.91;;;20.80;58.39
75065;BME280;63646;49.110;9.140;2022-11-15T15:06:13;98485.66;;;20.78;58.78
75065;BME280;63646;49.110;9.140;2022-11-15T15:08:40;98487.31;;;20.79;58.82
75065;BME280;63646;49.110;9.140;2022-11-15T15:11:15;98481.31;;;20.77;58.35
75065;BME280;63646;49.110;9.140;2022-11-15T15:13:41;98474.19;;;20.77;58.84
75065;BME280;63646;49.110;9.140;2022-11-15T15:16:07;98476.00;;;20.77;58.68
75065;BME280;63646;49.110;9.140;2022-11-15T15:18:32;98474.19;;;20.77;58.64
75065;BME280;63646;49.110;9.140;2022-11-15T15:20:59;98469.88;;;20.76;58.70
75065;BME280;63646;49.110;9.140;2022-11-15T15:23:27;98465.56;;;20.75;58.91
75065;BME280;63646;49.110;9.140;2022-11-15T15:25:56;98460.25;;;20.75;58.82
75065;BME280;63646;49.110;9.140;2022-11-15T15:28:21;98457.59;;;20.75;58.76